METAR AND TAF INFORMATION

Deprecated: The each() function is deprecated. This message will be suppressed on further calls in /home/customer/www/vueling-va.com/public_html/VAM/vam/helpers/get_metar.php on line 20
METAR FOR LEAS
ADDS - METARS form results

(1008 UTC 25 September 2020)
Data provider http://aviationweather.gov/metar/data/
 
METAR text: LEAS 251005Z 28019KT 250V320 6000 SHRA FEW023 BKN040TCU BKN058 13/10 Q1024 TEMPO 3000 SHRA
Conditions at: LEAS (ASTURIAS/AVILES , ES) observed 1005 UTC 25 September 2020
Temperature: 13.0°C (55°F)
Dewpoint: 10.0°C (50°F) [RH = 82%]
Pressure (altimeter): 30.24 inches Hg (1024.0 mb)
Winds: from the W (280 degrees) at 22 MPH (19 knots; 9.8 m/s)
Visibility: 4 miles ( 6 km)
Ceiling: 4000 feet AGL
Clouds: few clouds at 2300 feet AGL
broken clouds at 4000 feet AGL
broken clouds at 5800 feet AGL
Weather: SHRA  (rain showers)

METAR text: LEAS 251000Z 28018G29KT 250V320 9999 FEW023 SCT040TCU BKN058 14/10 Q1023 TEMPO 3000 SHRA
Conditions at: LEAS (ASTURIAS/AVILES , ES) observed 1000 UTC 25 September 2020
Temperature: 14.0°C (57°F)
Dewpoint: 10.0°C (50°F) [RH = 77%]
Pressure (altimeter): 30.21 inches Hg (1023.0 mb)
Winds: from the W (280 degrees) at 21 MPH (18 knots; 9.3 m/s)
gusting to 33 MPH (29 knots; 14.9 m/s)
Visibility: 6 or more miles (10+ km)
Ceiling: 5800 feet AGL
Clouds: few clouds at 2300 feet AGL
scattered clouds at 4000 feet AGL
broken clouds at 5800 feet AGL
Weather: no significant weather observed at this time

METAR text: LEAS 250943Z 28012G24KT 240V320 9000 -SHRA FEW023 SCT040TCU BKN058 13/11 Q1024 RESHRA TEMPO 3000 SHRA
Conditions at: LEAS (ASTURIAS/AVILES , ES) observed 0943 UTC 25 September 2020
Temperature: 13.0°C (55°F)
Dewpoint: 11.0°C (52°F) [RH = 88%]
Pressure (altimeter): 30.24 inches Hg (1024.0 mb)
Winds: from the W (280 degrees) at 14 MPH (12 knots; 6.2 m/s)
gusting to 28 MPH (24 knots; 12.3 m/s)
Visibility: 6 miles ( 9 km)
Ceiling: 5800 feet AGL
Clouds: few clouds at 2300 feet AGL
scattered clouds at 4000 feet AGL
broken clouds at 5800 feet AGL
Weather: -SHRA  (light rain showers)

METAR text: LEAS 250937Z 28011KT 240V330 7000 +SHRA FEW018 SCT040TCU BKN063 14/11 Q1024 TEMPO 3000 SHRA
Conditions at: LEAS (ASTURIAS/AVILES , ES) observed 0937 UTC 25 September 2020
Temperature: 14.0°C (57°F)
Dewpoint: 11.0°C (52°F) [RH = 82%]
Pressure (altimeter): 30.24 inches Hg (1024.0 mb)
Winds: from the W (280 degrees) at 13 MPH (11 knots; 5.7 m/s)
Visibility: 4 miles ( 7 km)
Ceiling: 6300 feet AGL
Clouds: few clouds at 1800 feet AGL
scattered clouds at 4000 feet AGL
broken clouds at 6300 feet AGL
Weather: +SHRA  (heavy rain showers)

METAR text: LEAS 250936Z 28011KT 240V330 7000 SHRA FEW018 SCT040TCU BKN063 13/12 Q1024 TEMPO 3000 SHRA
Conditions at: LEAS (ASTURIAS/AVILES , ES) observed 0936 UTC 25 September 2020
Temperature: 13.0°C (55°F)
Dewpoint: 12.0°C (54°F) [RH = 94%]
Pressure (altimeter): 30.24 inches Hg (1024.0 mb)
Winds: from the W (280 degrees) at 13 MPH (11 knots; 5.7 m/s)
Visibility: 4 miles ( 7 km)
Ceiling: 6300 feet AGL
Clouds: few clouds at 1800 feet AGL
scattered clouds at 4000 feet AGL
broken clouds at 6300 feet AGL
Weather: SHRA  (rain showers)

METAR text: LEAS 250930Z 28015KT 4300 SHRA SCT020 SCT040TCU BKN063 12/11 Q1024 TEMPO NSW
Conditions at: LEAS (ASTURIAS/AVILES , ES) observed 0930 UTC 25 September 2020
Temperature: 12.0°C (54°F)
Dewpoint: 11.0°C (52°F) [RH = 94%]
Pressure (altimeter): 30.24 inches Hg (1024.0 mb)
Winds: from the W (280 degrees) at 17 MPH (15 knots; 7.7 m/s)
Visibility: 2.67 miles (4.30 km)
Ceiling: 6300 feet AGL
Clouds: scattered clouds at 2000 feet AGL
scattered clouds at 4000 feet AGL
broken clouds at 6300 feet AGL
Weather: SHRA  (rain showers)

METAR text: LEAS 250921Z 28015KT 250V310 6000 SHRA SCT020 SCT040TCU BKN063 13/11 Q1024 TEMPO 3000 SHRA
Conditions at: LEAS (ASTURIAS/AVILES , ES) observed 0921 UTC 25 September 2020
Temperature: 13.0°C (55°F)
Dewpoint: 11.0°C (52°F) [RH = 88%]
Pressure (altimeter): 30.24 inches Hg (1024.0 mb)
Winds: from the W (280 degrees) at 17 MPH (15 knots; 7.7 m/s)
Visibility: 4 miles ( 6 km)
Ceiling: 6300 feet AGL
Clouds: scattered clouds at 2000 feet AGL
scattered clouds at 4000 feet AGL
broken clouds at 6300 feet AGL
Weather: SHRA  (rain showers)

Forecast for: LEAS (ASTURIAS/AVILES , ES)
Text: TAF LEAS 250800Z 2509/2609 30014KT 9999 SCT020 SCT035 TX17/2514Z TN13/2605Z
Forecast period: 0900 UTC 25 September 2020 to 0900 UTC 26 September 2020
Forecast type: FROM: standard forecast or significant change
Winds: from the WNW (300 degrees) at 16 MPH (14 knots; 7.2 m/s)
Visibility: 6 or more miles (10+ km)
Ceiling: at least 12,000 feet AGL
Clouds: scattered clouds at 2000 feet AGL
scattered clouds at 3500 feet AGL
Weather: no significant weather forecast for this period
Text: TEMPO 2509/2518 27018G34KT
Forecast period: 0900 to 1800 UTC 25 September 2020
Forecast type: TEMPORARY: The following changes expected for less than half the time period
Winds: from the W (270 degrees) at 21 MPH (18 knots; 9.3 m/s)
gusting to 39 MPH (34 knots; 17.5 m/s)
Visibility: missing
Ceiling: unknown
Clouds: missing
Weather: no significant weather forecast for this period
Text: TEMPO 2509/2513 3000 RA SHRA SCT030TCU
Forecast period: 0900 to 1300 UTC 25 September 2020
Forecast type: TEMPORARY: The following changes expected for less than half the time period
Visibility: 1.86 miles (2.99 km)
Ceiling: at least 12,000 feet AGL
Clouds: scattered clouds at 3000 feet AGL
Weather: RA SHRA  (moderate rain, rain showers)
Text: PROB30
Forecast period: 1300 UTC 25 September 2020 to 0800 UTC 26 September 2020
Forecast type: TEMPORARY: The following changes expected for less than half the time period
Visibility: missing
Ceiling: at least 12,000 feet AGL
Clouds: scattered clouds at 3000 feet AGL
Weather: SHRA  (rain showers)
Text: TEMPO 2513/2608 SHRA SCT030TCU
Forecast period: 2100 UTC 25 September 2020 to 0900 UTC 26 September 2020
Forecast type: TEMPORARY: The following changes expected for less than half the time period
Winds: from the WSW (240 degrees) at 9 MPH (8 knots; 4.1 m/s)
Visibility: missing
Ceiling: unknown
Clouds: missing
Weather: no significant weather forecast for this period

 AIRPORT MAP

 RUNWAY INFORMATION
Runway 11 Runway length 7218 ft Runway width 148 ft
Runway elevation 399 ft Runway displaced threshold 0 ft Runway heading 109
Runway 29 Runway length 7218 ft Runway width 148 ft
Runway elevation 399 ft Runway displaced threshold 0 ft Runway heading 289

 AIRPORT FREQUENCIES
Type APP Name APP Frequency 118.15 MHZ
Type GND Name GND Frequency 121.7 MHZ
Type TWR Name TWR Frequency 118.15 MHZ

 AIRPORT NEAR NAVIGATION AIDS
Type NDB Name Asturias Frequency 325 KHZ
Type NDB Name Asturias Frequency 387 KHZ
Type VOR-DME Name Asturias Frequency 112400 KHZ



Powered by Virtual Airlines Manager [v2.6.2]